Latest Weather Observations for Swan Hill

IDV60801

Issued at 8:32 pm EDT Thursday 21 February 2019 (issued every 10 minutes, with the page automatically refreshed every 10 minutes)

About weather observations | Map of weather stations | Latest weather observations for VIC | Other Formats
Station Details ID: 077094 Name: SWAN HILL AERODROME Lat: -35.38 Lon: 143.54 Height: 71.0 m
Data from the previous 72 hours. | See also: Recent months at Swan Hill
Date/Time
EDT
Temp
°C
App
Temp
°C
Dew
Point
°C
Rel
Hum
%
Delta-T
°C
Wind Press
QNH
hPa
Press
MSL
hPa
Rain since
9am
mm
Dir  Spd
km/h
Gust
km/h
Spd
kts
Gust
kts
21/08:30pm 25.7 21.5 3.6 24 10.9 S 15 22 8 12 1016.9 1016.6 0.0
21/08:00pm 27.0 22.4 3.5 22 11.7 S 17 26 9 14 1016.6 1016.3 0.0
21/07:30pm 28.0 22.9 3.0 20 12.4 S 19 32 10 17 1016.4 1016.1 0.0
21/07:00pm 28.6 23.2 2.7 19 12.9 S 20 33 11 18 1016.3 1016.0 0.0
21/06:30pm 28.8 23.3 2.1 18 13.2 SSW 20 32 11 17 1016.1 1015.8 0.0
21/06:00pm 29.0 23.6 1.5 17 13.4 S 19 30 10 16 1016.2 1015.9 0.0
21/05:30pm 29.5 24.2 1.9 17 13.6 S 19 35 10 19 1016.3 1016.0 0.0
21/05:00pm 29.3 24.1 2.5 18 13.3 S 19 32 10 17 1016.4 1016.1 0.0
21/04:30pm 28.9 23.8 3.0 19 13.0 S 19 30 10 16 1016.5 1016.2 0.0
21/04:00pm 28.4 23.9 4.0 21 12.4 S 17 28 9 15 1016.7 1016.4 0.0
21/03:30pm 28.9 24.3 3.7 20 12.8 S 17 30 9 16 1017.2 1016.9 0.0
21/03:00pm 27.5 22.9 3.9 22 11.9 S 17 28 9 15 1017.7 1017.4 0.0
21/02:30pm 26.4 21.2 3.6 23 11.4 S 20 32 11 17 1018.0 1017.7 0.0
21/02:00pm 26.5 21.3 3.7 23 11.4 S 20 30 11 16 1018.3 1017.9 0.0
21/01:30pm 25.8 20.7 3.1 23 11.2 SSW 19 35 10 19 1018.7 1018.3 0.0
21/01:00pm 25.3 20.1 3.3 24 10.8 S 20 32 11 17 1018.9 1018.5 0.0
21/12:30pm 24.1 19.6 4.0 27 9.9 SSE 17 28 9 15 1019.3 1018.9 0.0
21/12:00pm 22.9 18.4 4.4 30 9.1 S 17 24 9 13 1019.4 1019.0 0.0
21/11:30am 21.4 16.6 4.5 33 8.3 S 19 28 10 15 1019.6 1019.2 0.0
21/11:00am 20.4 15.7 5.2 37 7.5 S 19 30 10 16 1019.7 1019.3 0.0
21/10:30am 19.4 15.3 6.2 42 6.6 S 17 28 9 15 1019.7 1019.3 0.0
21/10:00am 18.3 13.3 6.5 46 5.9 S 22 33 12 18 1019.8 1019.4 0.0
21/09:30am 17.5 12.7 7.3 51 5.1 S 22 32 12 17 1019.6 1019.2 0.0
21/09:00am 16.6 11.9 7.8 56 4.4 S 22 33 12 18 1019.5 1019.1 0.0
21/08:30am 15.8 12.7 9.0 64 3.5 S 15 22 8 12 1019.2 1018.8 0.0
21/08:00am 14.3 11.9 8.7 69 2.8 S 11 17 6 9 1018.7 1018.3 0.0
21/07:30am 12.9 10.8 8.2 73 2.3 SSE 9 15 5 8 1018.3 1017.9 0.0
21/07:00am 12.7 10.5 8.0 73 2.3 SSE 9 13 5 7 1018.0 1017.7 0.0
21/06:30am 13.0 10.9 8.1 72 2.4 SSE 9 13 5 7 1017.6 1017.3 0.0
21/06:00am 13.3 11.1 8.0 70 2.6 SSE 9 13 5 7 1017.3 1017.0 0.0
21/05:30am 13.9 11.4 8.1 68 2.9 SSE 11 15 6 8 1017.1 1016.8 0.0
21/05:00am 14.7 11.8 8.2 65 3.3 SSE 13 20 7 11 1016.8 1016.5 0.0
21/04:30am 15.5 12.3 8.3 62 3.6 SSE 15 22 8 12 1016.7 1016.4 0.0
21/04:00am 16.2 12.2 8.2 59 4.1 SSE 19 26 10 14 1016.5 1016.2 0.0
21/03:30am 16.0 13.0 7.7 58 4.2 SSE 13 17 7 9 1016.4 1016.1 0.0
21/03:00am 16.3 13.6 7.3 55 4.5 S 11 15 6 8 1016.5 1016.2 0.0
21/02:30am 17.1 14.4 7.5 53 4.8 S 11 17 6 9 1016.4 1016.1 0.0
21/02:00am 17.8 15.1 7.5 51 5.2 SSW 11 17 6 9 1016.3 1016.0 0.0
21/01:30am 18.4 15.7 7.5 49 5.5 S 11 17 6 9 1016.2 1015.9 0.0
21/01:00am 19.4 16.0 7.8 47 6.0 S 15 22 8 12 1016.1 1015.8 0.0
21/12:30am 20.5 16.4 7.8 44 6.6 SSW 19 28 10 15 1015.8 1015.5 0.0
21/12:00am 20.9 16.5 7.5 42 6.9 SSW 20 30 11 16 1015.5 1015.2 0.0
 
Date/Time
EDT
Temp
°C
App
Temp
°C
Dew
Point
°C
Rel
Hum
%
Delta-T
°C
Wind Press
QNH
hPa
Press
MSL
hPa
Rain since
9am
mm
Dir  Spd
km/h
Gust
km/h
Spd
kts
Gust
kts
20/11:30pm 21.4 16.8 6.5 38 7.6 SSW 20 30 11 16 1015.4 1015.1 0.0
20/11:00pm 21.8 17.3 6.1 36 7.9 SSW 19 28 10 15 1015.3 1015.0 0.0
20/10:30pm 22.3 18.2 6.1 35 8.2 SSW 17 26 9 14 1015.2 1014.9 0.0
20/10:00pm 22.4 18.7 6.2 35 8.2 SSW 15 20 8 11 1014.9 1014.6 0.0
20/09:30pm 22.7 19.6 5.6 33 8.6 SSW 11 17 6 9 1014.6 1014.3 0.0
20/09:00pm 23.5 20.0 5.4 31 9.1 SW 13 17 7 9 1014.2 1013.9 0.0
20/08:30pm 24.5 20.2 5.3 29 9.7 SW 17 24 9 13 1013.9 1013.6 0.0
20/08:00pm 25.5 20.6 4.0 25 10.7 SSW 19 28 10 15 1013.7 1013.4 0.0
20/07:30pm 26.2 21.1 4.1 24 11.1 SSW 20 32 11 17 1013.5 1013.2 0.0
20/07:00pm 26.5 20.8 4.9 25 11.0 SSW 24 33 13 18 1013.3 1013.0 0.0
20/06:30pm 27.3 22.0 5.0 24 11.4 SW 22 35 12 19 1013.2 1012.9 0.0
20/06:00pm 27.6 21.1 4.6 23 11.7 WSW 28 41 15 22 1013.1 1012.8 0.0
20/05:30pm 27.1 20.9 4.2 23 11.6 SW 26 39 14 21 1013.0 1012.7 0.0
20/05:00pm 26.7 20.4 3.9 23 11.4 SW 26 33 14 18 1013.2 1012.9 0.0
20/04:30pm 26.8 21.3 4.0 23 11.5 SW 22 37 12 20 1013.3 1013.0 0.0
20/04:00pm 26.3 20.7 3.5 23 11.3 SW 22 35 12 19 1013.6 1013.3 0.0
20/03:30pm 25.4 20.3 4.0 25 10.7 SW 20 32 11 17 1014.1 1013.8 0.0
20/03:00pm 25.6 20.0 3.6 24 10.9 WSW 22 37 12 20 1014.4 1014.1 0.0
20/02:30pm 24.6 19.2 2.7 24 10.6 SW 20 35 11 19 1014.8 1014.5 0.0
20/02:00pm 23.1 17.4 3.1 27 9.6 SW 22 37 12 20 1015.0 1014.7 0.0
20/01:30pm 22.8 17.7 3.9 29 9.2 SW 20 33 11 18 1015.4 1015.1 0.0
20/01:00pm 21.9 16.9 4.5 32 8.5 SW 20 28 11 15 1015.7 1015.4 0.0
20/12:30pm 21.5 17.4 4.6 33 8.3 SW 15 26 8 14 1016.0 1015.7 0.0
20/12:00pm 20.0 15.0 4.5 36 7.5 WSW 20 32 11 17 1016.4 1016.1 0.0
20/11:30am 19.4 14.7 5.1 39 7.0 WSW 19 28 10 15 1016.5 1016.2 0.0
20/11:00am 18.8 14.5 5.3 41 6.6 SW 17 22 9 12 1016.5 1016.2 0.0
20/10:30am 18.1 14.3 5.7 44 6.1 SSW 15 24 8 13 1016.6 1016.3 0.0
20/10:00am 17.7 14.3 5.9 46 5.8 S 13 20 7 11 1016.7 1016.4 0.0
20/09:30am 17.0 13.2 5.6 47 5.5 S 15 24 8 13 1016.7 1016.4 0.0
20/09:00am 16.3 12.5 5.9 50 5.0 S 15 20 8 11 1016.5 1016.2 0.0
20/08:30am 15.1 12.3 5.0 51 4.8 SSW 9 17 5 9 1016.4 1016.1 0.0
20/08:00am 12.9 9.9 4.1 55 4.0 SSW 9 11 5 6 1016.1 1015.8 0.0
20/07:30am 11.7 8.6 3.5 57 3.6 SSW 9 13 5 7 1015.9 1015.6 0.0
20/07:00am 12.0 8.9 3.8 57 3.7 SSW 9 13 5 7 1015.4 1015.1 0.0
20/06:30am 12.0 8.5 3.5 56 3.8 S 11 15 6 8 1015.1 1014.8 0.0
20/06:00am 11.7 9.0 3.5 57 3.6 S 7 9 4 5 1014.9 1014.6 0.0
20/05:30am 12.4 9.3 3.6 55 3.9 S 9 15 5 8 1014.6 1014.3 0.0
20/05:00am 12.7 9.6 3.4 53 4.2 S 9 13 5 7 1014.3 1014.0 0.0
20/04:30am 13.3 9.8 3.4 51 4.4 S 11 17 6 9 1014.3 1014.0 0.0
20/04:00am 13.6 10.0 3.1 49 4.7 S 11 17 6 9 1014.0 1013.7 0.0
20/03:30am 13.9 9.9 3.1 48 4.8 SSW 13 17 7 9 1013.8 1013.5 0.0
20/03:00am 14.2 10.7 3.4 48 4.9 SW 11 15 6 8 1013.7 1013.4 0.0
20/02:30am 15.1 11.6 3.3 45 5.4 SW 11 15 6 8 1013.5 1013.2 0.0
20/02:00am 15.7 11.8 3.2 43 5.7 SSW 13 17 7 9 1013.7 1013.4 0.0
20/01:30am 16.1 12.5 3.2 42 5.9 SSW 11 13 6 7 1013.7 1013.4 0.0
20/01:00am 16.7 13.5 3.1 40 6.2 SSW 9 13 5 7 1013.8 1013.5 0.0
20/12:30am 17.6 13.6 2.8 37 6.8 SSW 13 19 7 10 1013.7 1013.4 0.0
20/12:00am 17.8 13.4 2.5 36 7.0 SW 15 20 8 11 1013.7 1013.4 0.0
 
Date/Time
EDT
Temp
°C
App
Temp
°C
Dew
Point
°C
Rel
Hum
%
Delta-T
°C
Wind Press
QNH
hPa
Press
MSL
hPa
Rain since
9am
mm
Dir  Spd
km/h
Gust
km/h
Spd
kts
Gust
kts
19/11:30pm 18.3 13.8 2.2 34 7.4 SW 15 19 8 10 1013.7 1013.4 0.0
19/11:00pm 18.4 14.6 1.9 33 7.5 SSW 11 15 6 8 1013.7 1013.4 0.0
19/10:30pm 18.7 15.3 1.7 32 7.7 SSW 9 13 5 7 1013.4 1013.1 0.0
19/10:00pm 19.3 15.9 1.8 31 8.0 SSW 9 13 5 7 1013.0 1012.7 0.0
19/09:30pm 20.2 16.8 2.1 30 8.4 SSW 9 13 5 7 1012.9 1012.6 0.0
19/09:00pm 21.4 17.7 2.2 28 9.0 SSW 11 15 6 8 1012.5 1012.2 0.0
19/08:30pm 22.6 18.4 1.6 25 9.8 SSW 13 19 7 10 1012.3 1012.0 0.0
19/08:00pm 23.8 18.2 1.4 23 10.5 SW 20 28 11 15 1011.8 1011.5 0.0
19/07:30pm 24.5 18.2 1.4 22 10.9 SW 24 32 13 17 1011.6 1011.3 0.0
19/07:00pm 25.0 18.5 0.5 20 11.4 SW 24 35 13 19 1011.5 1011.2 0.0
19/06:30pm 25.3 19.0 1.4 21 11.3 SW 24 39 13 21 1011.4 1011.1 0.0
19/06:00pm 25.9 19.1 0.5 19 11.9 SW 26 39 14 21 1011.3 1011.0 0.0
19/05:30pm 25.4 19.0 0.8 20 11.6 SW 24 35 13 19 1011.2 1010.9 0.0
19/05:00pm 25.3 19.4 1.4 21 11.4 SW 22 35 12 19 1011.3 1011.0 0.0
19/04:30pm 24.7 17.6 1.6 22 11.0 SW 28 43 15 23 1011.4 1011.1 0.0
19/04:00pm 24.6 18.9 2.7 24 10.6 WSW 22 35 12 19 1011.6 1011.3 0.0
19/03:30pm 24.5 18.4 2.6 24 10.6 SW 24 39 13 21 1012.0 1011.7 0.0
19/03:00pm 24.8 19.4 2.3 23 10.8 SW 20 32 11 17 1012.1 1011.8 0.0
19/02:30pm 24.7 19.9 2.8 24 10.6 S 17 32 9 17 1012.3 1012.0 0.0
19/02:00pm 23.1 18.3 2.6 26 9.8 SW 17 30 9 16 1012.7 1012.4 0.0
19/01:30pm 22.0 16.6 2.7 28 9.2 S 20 33 11 18 1012.9 1012.6 0.0
19/01:00pm 21.7 16.4 2.9 29 8.9 S 20 33 11 18 1013.3 1013.0 0.0
19/12:30pm 20.9 15.3 3.6 32 8.3 SW 22 37 12 20 1013.5 1013.2 0.0
19/12:00pm 20.1 14.9 3.8 34 7.8 SW 20 35 11 19 1013.8 1013.5 0.0
19/11:30am 19.5 15.0 4.4 37 7.3 SSW 17 32 9 17 1013.8 1013.5 0.0
19/11:00am 18.7 14.4 5.2 41 6.6 SSW 17 32 9 17 1014.1 1013.8 0.0
19/10:30am 17.7 12.8 5.0 43 6.1 SSW 20 32 11 17 1013.9 1013.6 0.0
19/10:00am 17.3 12.7 5.6 46 5.7 SSW 19 32 10 17 1013.9 1013.6 0.0
19/09:30am 16.4 11.7 6.2 51 5.0 SSW 20 32 11 17 1013.8 1013.5 0.0
19/09:00am 15.3 11.2 6.3 55 4.4 S 17 28 9 15 1013.6 1013.3 0.0
19/08:30am 14.2 10.1 6.3 59 3.8 SSW 17 26 9 14 1013.2 1012.9 0.0
19/08:00am 12.6 8.8 5.8 63 3.2 SW 15 20 8 11 1013.1 1012.8 0.0
19/07:30am 11.6 7.7 5.5 66 2.8 SW 15 19 8 10 1012.8 1012.5 0.0
19/07:00am 11.6 7.8 5.7 67 2.8 SW 15 19 8 10 1012.6 1012.3 0.0
19/06:30am 11.6 8.1 5.5 66 2.8 SSW 13 15 7 8 1012.3 1012.0 0.0
19/06:00am 12.5 8.7 5.7 63 3.2 SSW 15 20 8 11 1012.0 1011.7 0.0
19/05:30am 12.6 9.9 5.8 63 3.2 SSW 9 15 5 8 1011.7 1011.4 0.0
19/05:00am 13.1 9.7 6.0 62 3.4 SSW 13 19 7 10 1011.5 1011.2 0.0
19/04:30am 13.4 10.5 6.3 62 3.4 SSW 11 17 6 9 1011.6 1011.3 0.0
19/04:00am 14.1 11.3 6.9 62 3.5 S 11 17 6 9 1011.5 1011.2 0.0
19/03:30am 14.7 11.5 7.0 60 3.8 S 13 20 7 11 1011.3 1011.0 0.0
19/03:00am 15.3 12.2 7.1 58 4.1 SSW 13 19 7 10 1010.9 1010.6 0.0
19/02:30am 16.0 12.8 7.0 55 4.5 S 13 22 7 12 1010.7 1010.4 0.0
19/02:00am 16.8 12.5 6.9 52 4.9 SSW 19 28 10 15 1010.6 1010.3 0.0
19/01:30am 17.6 13.0 6.5 48 5.5 SSW 20 32 11 17 1010.3 1010.0 0.0
19/01:00am 18.1 12.6 6.0 45 6.0 SSW 24 33 13 18 1010.2 1009.9 0.0
19/12:30am 18.8 13.6 5.6 42 6.5 SSW 22 33 12 18 1009.7 1009.4 0.0
19/12:00am 19.7 14.0 5.0 38 7.2 SSW 24 39 13 21 1009.5 1009.2 0.0
 
Date/Time
EDT
Temp
°C
App
Temp
°C
Dew
Point
°C
Rel
Hum
%
Delta-T
°C
Wind Press
QNH
hPa
Press
MSL
hPa
Rain since
9am
mm
Dir  Spd
km/h
Gust
km/h
Spd
kts
Gust
kts
18/11:30pm 20.6 12.9 5.4 37 7.5 SW 35 50 19 27 1009.0 1008.7 0.0
18/11:00pm 21.7 14.9 5.2 34 8.2 SW 30 41 16 22 1008.8 1008.5 0.0
18/10:30pm 22.9 17.0 3.9 29 9.3 SSW 24 35 13 19 1008.6 1008.3 0.0
18/10:00pm 23.9 17.2 3.8 27 9.9 SW 28 41 15 22 1008.0 1007.7 0.0
18/09:30pm 24.8 18.3 4.5 27 10.2 SW 28 39 15 21 1007.4 1007.0 0.0
18/09:00pm 26.0 19.6 5.0 26 10.7 SW 28 39 15 21 1007.0 1006.6 0.0

Other formats

Comma delimited format used in spreadsheet applications
http://www.bom.gov.au/fwo/IDV60801/IDV60801.94843.axf

JavaScript Object Notation format (JSON) in row-major order
http://www.bom.gov.au/fwo/IDV60801/IDV60801.94843.json

Data quality

Most of these data are generated automatically and are frequently updated. Quality checks on data are not normally performed. It is possible for incorrect values to appear. Refer to information at About Latest Weather Observations and please check the disclaimer before using these data.